sensor_id;sensor_type;location;lat;lon;timestamp;temperature;humidity
38788;DHT22;24536;45.488;12.238;2023-03-01T00:01:51;8.50;60.60
38788;DHT22;24536;45.488;12.238;2023-03-01T00:04:17;8.60;60.30
38788;DHT22;24536;45.488;12.238;2023-03-01T00:06:42;8.60;60.00
38788;DHT22;24536;45.488;12.238;2023-03-01T00:09:12;8.60;60.00
38788;DHT22;24536;45.488;12.238;2023-03-01T00:11:38;8.50;59.80
38788;DHT22;24536;45.488;12.238;2023-03-01T00:14:04;8.50;59.40
38788;DHT22;24536;45.488;12.238;2023-03-01T00:16:33;8.60;59.90
38788;DHT22;24536;45.488;12.238;2023-03-01T00:18:59;8.60;60.00
38788;DHT22;24536;45.488;12.238;2023-03-01T00:21:26;8.60;60.00
38788;DHT22;24536;45.488;12.238;2023-03-01T00:23:52;8.60;60.20
38788;DHT22;24536;45.488;12.238;2023-03-01T00:26:19;8.50;60.20
38788;DHT22;24536;45.488;12.238;2023-03-01T00:28:46;8.60;60.20
38788;DHT22;24536;45.488;12.238;2023-03-01T00:31:18;8.50;59.60
38788;DHT22;24536;45.488;12.238;2023-03-01T00:33:44;8.60;60.10
38788;DHT22;24536;45.488;12.238;2023-03-01T00:36:12;8.50;59.60
38788;DHT22;24536;45.488;12.238;2023-03-01T00:38:39;8.40;59.60
38788;DHT22;24536;45.488;12.238;2023-03-01T00:41:12;8.50;60.10
38788;DHT22;24536;45.488;12.238;2023-03-01T00:43:38;8.30;60.40
38788;DHT22;24536;45.488;12.238;2023-03-01T00:46:06;8.30;60.10
38788;DHT22;24536;45.488;12.238;2023-03-01T00:48:33;8.30;60.10
38788;DHT22;24536;45.488;12.238;2023-03-01T00:53:35;8.40;60.40
38788;DHT22;24536;45.488;12.238;2023-03-01T00:56:02;8.40;60.60
38788;DHT22;24536;45.488;12.238;2023-03-01T00:58:28;8.30;60.50
38788;DHT22;24536;45.488;12.238;2023-03-01T01:00:54;8.30;60.70
38788;DHT22;24536;45.488;12.238;2023-03-01T01:03:20;8.40;60.60
38788;DHT22;24536;45.488;12.238;2023-03-01T01:05:45;8.40;60.30
38788;DHT22;24536;45.488;12.238;2023-03-01T01:08:12;8.30;60.20
38788;DHT22;24536;45.488;12.238;2023-03-01T01:10:37;8.20;60.50
38788;DHT22;24536;45.488;12.238;2023-03-01T01:13:03;8.20;60.50
38788;DHT22;24536;45.488;12.238;2023-03-01T01:15:32;8.30;60.30
38788;DHT22;24536;45.488;12.238;2023-03-01T01:17:58;8.30;60.30
38788;DHT22;24536;45.488;12.238;2023-03-01T01:20:24;8.30;60.20
38788;DHT22;24536;45.488;12.238;2023-03-01T01:22:49;8.30;60.40
38788;DHT22;24536;45.488;12.238;2023-03-01T01:25:16;8.30;60.40
38788;DHT22;24536;45.488;12.238;2023-03-01T01:27:42;8.40;60.30
38788;DHT22;24536;45.488;12.238;2023-03-01T01:30:08;8.40;60.30
38788;DHT22;24536;45.488;12.238;2023-03-01T01:32:34;8.40;60.50
38788;DHT22;24536;45.488;12.238;2023-03-01T01:35:00;8.50;60.40
38788;DHT22;24536;45.488;12.238;2023-03-01T01:37:25;8.50;60.30
38788;DHT22;24536;45.488;12.238;2023-03-01T01:39:57;8.50;60.00
38788;DHT22;24536;45.488;12.238;2023-03-01T01:42:24;8.50;60.10
38788;DHT22;24536;45.488;12.238;2023-03-01T01:47:51;8.50;60.10
38788;DHT22;24536;45.488;12.238;2023-03-01T01:50:18;8.50;60.00
38788;DHT22;24536;45.488;12.238;2023-03-01T01:52:45;8.60;60.00
38788;DHT22;24536;45.488;12.238;2023-03-01T01:55:15;8.60;60.00
38788;DHT22;24536;45.488;12.238;2023-03-01T01:57:48;8.50;60.00
38788;DHT22;24536;45.488;12.238;2023-03-01T02:00:22;8.50;59.80
38788;DHT22;24536;45.488;12.238;2023-03-01T02:02:52;8.60;60.20
38788;DHT22;24536;45.488;12.238;2023-03-01T02:05:53;8.50;59.60
38788;DHT22;24536;45.488;12.238;2023-03-01T02:08:23;8.60;60.10
38788;DHT22;24536;45.488;12.238;2023-03-01T02:10:51;8.60;60.00
38788;DHT22;24536;45.488;12.238;2023-03-01T02:13:18;8.60;60.00
38788;DHT22;24536;45.488;12.238;2023-03-01T02:15:43;8.60;59.60
38788;DHT22;24536;45.488;12.238;2023-03-01T02:18:12;8.70;59.80
38788;DHT22;24536;45.488;12.238;2023-03-01T02:23:11;8.60;60.00
38788;DHT22;24536;45.488;12.238;2023-03-01T02:25:57;8.60;60.00
38788;DHT22;24536;45.488;12.238;2023-03-01T02:28:30;8.60;59.70
38788;DHT22;24536;45.488;12.238;2023-03-01T02:30:56;8.60;60.10
38788;DHT22;24536;45.488;12.238;2023-03-01T02:33:41;8.60;60.10
38788;DHT22;24536;45.488;12.238;2023-03-01T02:36:20;8.60;60.00
38788;DHT22;24536;45.488;12.238;2023-03-01T02:38:48;8.70;60.00
38788;DHT22;24536;45.488;12.238;2023-03-01T02:41:16;8.70;59.90
38788;DHT22;24536;45.488;12.238;2023-03-01T02:43:43;8.70;59.70
38788;DHT22;24536;45.488;12.238;2023-03-01T02:46:15;8.70;59.70
38788;DHT22;24536;45.488;12.238;2023-03-01T02:48:48;8.80;59.90
38788;DHT22;24536;45.488;12.238;2023-03-01T02:56:40;8.70;59.40
38788;DHT22;24536;45.488;12.238;2023-03-01T02:59:06;8.70;60.00
38788;DHT22;24536;45.488;12.238;2023-03-01T03:01:32;8.80;59.60
38788;DHT22;24536;45.488;12.238;2023-03-01T03:04:06;8.70;59.60
38788;DHT22;24536;45.488;12.238;2023-03-01T03:06:32;8.70;59.40
38788;DHT22;24536;45.488;12.238;2023-03-01T03:08:58;8.70;59.80
38788;DHT22;24536;45.488;12.238;2023-03-01T03:11:24;8.70;59.80
38788;DHT22;24536;45.488;12.238;2023-03-01T03:13:49;8.70;59.50
38788;DHT22;24536;45.488;12.238;2023-03-01T03:18:41;8.70;59.40
38788;DHT22;24536;45.488;12.238;2023-03-01T03:21:08;8.70;60.10
38788;DHT22;24536;45.488;12.238;2023-03-01T03:23:37;8.70;60.10
38788;DHT22;24536;45.488;12.238;2023-03-01T03:26:04;8.70;60.20
38788;DHT22;24536;45.488;12.238;2023-03-01T03:28:31;8.60;60.20
38788;DHT22;24536;45.488;12.238;2023-03-01T03:30:56;8.60;59.90
38788;DHT22;24536;45.488;12.238;2023-03-01T03:33:24;8.50;59.80
38788;DHT22;24536;45.488;12.238;2023-03-01T03:35:50;8.60;60.50
38788;DHT22;24536;45.488;12.238;2023-03-01T03:38:18;8.70;60.20
38788;DHT22;24536;45.488;12.238;2023-03-01T03:41:04;8.70;59.40
38788;DHT22;24536;45.488;12.238;2023-03-01T03:43:32;8.70;59.90
38788;DHT22;24536;45.488;12.238;2023-03-01T03:45:58;8.60;59.80
38788;DHT22;24536;45.488;12.238;2023-03-01T03:48:24;8.60;60.10
38788;DHT22;24536;45.488;12.238;2023-03-01T03:50:53;8.50;60.40
38788;DHT22;24536;45.488;12.238;2023-03-01T03:53:20;8.60;60.00
38788;DHT22;24536;45.488;12.238;2023-03-01T03:55:46;8.60;60.20
38788;DHT22;24536;45.488;12.238;2023-03-01T03:58:15;8.70;60.20
38788;DHT22;24536;45.488;12.238;2023-03-01T04:00:43;8.70;60.20
38788;DHT22;24536;45.488;12.238;2023-03-01T04:03:10;8.80;59.90
38788;DHT22;24536;45.488;12.238;2023-03-01T04:05:38;8.80;60.10
38788;DHT22;24536;45.488;12.238;2023-03-01T04:08:04;8.80;60.10
38788;DHT22;24536;45.488;12.238;2023-03-01T04:13:01;8.90;60.00
38788;DHT22;24536;45.488;12.238;2023-03-01T04:15:27;8.80;60.00
38788;DHT22;24536;45.488;12.238;2023-03-01T04:17:54;8.90;60.10
38788;DHT22;24536;45.488;12.238;2023-03-01T04:20:27;8.70;60.00
38788;DHT22;24536;45.488;12.238;2023-03-01T04:23:18;8.80;60.00
38788;DHT22;24536;45.488;12.238;2023-03-01T04:28:28;8.80;60.20
38788;DHT22;24536;45.488;12.238;2023-03-01T04:30:56;8.80;60.10
38788;DHT22;24536;45.488;12.238;2023-03-01T04:33:23;8.80;60.20
38788;DHT22;24536;45.488;12.238;2023-03-01T04:35:48;8.80;60.30
38788;DHT22;24536;45.488;12.238;2023-03-01T04:38:16;8.90;60.00
38788;DHT22;24536;45.488;12.238;2023-03-01T04:40:41;8.90;60.30
38788;DHT22;24536;45.488;12.238;2023-03-01T04:43:09;8.80;59.80
38788;DHT22;24536;45.488;12.238;2023-03-01T04:45:35;8.90;60.40
38788;DHT22;24536;45.488;12.238;2023-03-01T04:48:01;8.90;60.50
38788;DHT22;24536;45.488;12.238;2023-03-01T04:50:27;8.90;60.40
38788;DHT22;24536;45.488;12.238;2023-03-01T04:52:53;8.90;60.20
38788;DHT22;24536;45.488;12.238;2023-03-01T04:55:19;8.90;60.60
38788;DHT22;24536;45.488;12.238;2023-03-01T04:57:45;9.00;60.50
38788;DHT22;24536;45.488;12.238;2023-03-01T05:00:12;8.90;60.50
38788;DHT22;24536;45.488;12.238;2023-03-01T05:02:53;9.00;60.20
38788;DHT22;24536;45.488;12.238;2023-03-01T05:05:26;9.00;60.50
38788;DHT22;24536;45.488;12.238;2023-03-01T05:07:53;9.00;60.60
38788;DHT22;24536;45.488;12.238;2023-03-01T05:10:19;9.10;60.60
38788;DHT22;24536;45.488;12.238;2023-03-01T05:12:45;9.10;60.10
38788;DHT22;24536;45.488;12.238;2023-03-01T05:15:12;9.10;60.60
38788;DHT22;24536;45.488;12.238;2023-03-01T05:17:37;9.20;60.50
38788;DHT22;24536;45.488;12.238;2023-03-01T05:20:03;9.10;60.60
38788;DHT22;24536;45.488;12.238;2023-03-01T05:22:33;9.10;60.40
38788;DHT22;24536;45.488;12.238;2023-03-01T05:24:59;9.00;60.80
38788;DHT22;24536;45.488;12.238;2023-03-01T05:27:25;9.10;60.70
38788;DHT22;24536;45.488;12.238;2023-03-01T05:29:50;9.10;60.80
38788;DHT22;24536;45.488;12.238;2023-03-01T05:32:19;9.10;61.00
38788;DHT22;24536;45.488;12.238;2023-03-01T05:34:45;9.10;60.90
38788;DHT22;24536;45.488;12.238;2023-03-01T05:37:12;9.10;61.00
38788;DHT22;24536;45.488;12.238;2023-03-01T05:39:38;9.20;61.00
38788;DHT22;24536;45.488;12.238;2023-03-01T05:42:05;9.20;60.40
38788;DHT22;24536;45.488;12.238;2023-03-01T05:44:31;9.20;60.50
38788;DHT22;24536;45.488;12.238;2023-03-01T05:46:56;9.20;60.90
38788;DHT22;24536;45.488;12.238;2023-03-01T05:49:23;9.20;61.00
38788;DHT22;24536;45.488;12.238;2023-03-01T05:51:52;9.20;61.00
38788;DHT22;24536;45.488;12.238;2023-03-01T05:54:19;9.20;61.00
38788;DHT22;24536;45.488;12.238;2023-03-01T05:56:45;9.20;61.30
38788;DHT22;24536;45.488;12.238;2023-03-01T05:59:15;9.20;60.90
38788;DHT22;24536;45.488;12.238;2023-03-01T06:01:42;9.20;61.00
38788;DHT22;24536;45.488;12.238;2023-03-01T06:04:08;9.00;61.40
38788;DHT22;24536;45.488;12.238;2023-03-01T06:06:35;9.00;61.80
38788;DHT22;24536;45.488;12.238;2023-03-01T06:09:03;9.00;62.00
38788;DHT22;24536;45.488;12.238;2023-03-01T06:11:29;9.20;61.50
38788;DHT22;24536;45.488;12.238;2023-03-01T06:13:55;9.20;61.90
38788;DHT22;24536;45.488;12.238;2023-03-01T06:16:20;9.30;61.60
38788;DHT22;24536;45.488;12.238;2023-03-01T06:18:46;9.30;61.80
38788;DHT22;24536;45.488;12.238;2023-03-01T06:21:12;9.30;63.70
38788;DHT22;24536;45.488;12.238;2023-03-01T06:23:37;9.40;62.60
38788;DHT22;24536;45.488;12.238;2023-03-01T06:26:07;9.40;62.50
38788;DHT22;24536;45.488;12.238;2023-03-01T06:28:33;9.50;62.10
38788;DHT22;24536;45.488;12.238;2023-03-01T06:30:59;9.50;61.10
38788;DHT22;24536;45.488;12.238;2023-03-01T06:33:24;9.50;61.60
38788;DHT22;24536;45.488;12.238;2023-03-01T06:35:51;9.50;61.30
38788;DHT22;24536;45.488;12.238;2023-03-01T06:38:17;9.50;61.70
38788;DHT22;24536;45.488;12.238;2023-03-01T06:40:45;9.60;61.10
38788;DHT22;24536;45.488;12.238;2023-03-01T06:43:10;9.60;61.70
38788;DHT22;24536;45.488;12.238;2023-03-01T06:45:37;9.60;61.60
38788;DHT22;24536;45.488;12.238;2023-03-01T06:48:04;9.70;61.80
38788;DHT22;24536;45.488;12.238;2023-03-01T06:50:30;9.70;61.60
38788;DHT22;24536;45.488;12.238;2023-03-01T06:52:56;9.70;61.60
38788;DHT22;24536;45.488;12.238;2023-03-01T06:55:22;9.70;64.80
38788;DHT22;24536;45.488;12.238;2023-03-01T06:57:48;9.70;65.90
38788;DHT22;24536;45.488;12.238;2023-03-01T07:00:14;9.80;61.70
38788;DHT22;24536;45.488;12.238;2023-03-01T07:02:40;9.80;61.20
38788;DHT22;24536;45.488;12.238;2023-03-01T07:05:07;9.80;61.10
38788;DHT22;24536;45.488;12.238;2023-03-01T07:07:32;9.80;61.20
38788;DHT22;24536;45.488;12.238;2023-03-01T07:09:58;9.90;61.20
38788;DHT22;24536;45.488;12.238;2023-03-01T07:12:24;9.90;61.20
38788;DHT22;24536;45.488;12.238;2023-03-01T07:14:49;10.00;61.70
38788;DHT22;24536;45.488;12.238;2023-03-01T07:17:15;10.00;61.10
38788;DHT22;24536;45.488;12.238;2023-03-01T07:19:40;9.90;60.60
38788;DHT22;24536;45.488;12.238;2023-03-01T07:22:06;10.00;61.20
38788;DHT22;24536;45.488;12.238;2023-03-01T07:24:33;10.00;59.70
38788;DHT22;24536;45.488;12.238;2023-03-01T07:26:59;10.10;60.50
38788;DHT22;24536;45.488;12.238;2023-03-01T07:29:25;10.10;60.40
38788;DHT22;24536;45.488;12.238;2023-03-01T07:31:50;10.20;60.20
38788;DHT22;24536;45.488;12.238;2023-03-01T07:34:16;10.20;60.00
38788;DHT22;24536;45.488;12.238;2023-03-01T07:36:42;10.30;59.50
38788;DHT22;24536;45.488;12.238;2023-03-01T07:39:10;10.30;59.80
38788;DHT22;24536;45.488;12.238;2023-03-01T07:41:36;10.30;59.00
38788;DHT22;24536;45.488;12.238;2023-03-01T07:44:02;10.20;59.10
38788;DHT22;24536;45.488;12.238;2023-03-01T07:46:27;10.20;59.30
38788;DHT22;24536;45.488;12.238;2023-03-01T07:48:53;10.20;59.40
38788;DHT22;24536;45.488;12.238;2023-03-01T07:51:19;10.20;59.80
38788;DHT22;24536;45.488;12.238;2023-03-01T07:53:47;10.10;59.20
38788;DHT22;24536;45.488;12.238;2023-03-01T07:56:15;10.20;59.70
38788;DHT22;24536;45.488;12.238;2023-03-01T07:58:44;10.20;59.50
38788;DHT22;24536;45.488;12.238;2023-03-01T08:01:17;10.30;58.90
38788;DHT22;24536;45.488;12.238;2023-03-01T08:03:43;10.30;58.70
38788;DHT22;24536;45.488;12.238;2023-03-01T08:06:13;10.30;58.90
38788;DHT22;24536;45.488;12.238;2023-03-01T08:08:39;10.30;59.30
38788;DHT22;24536;45.488;12.238;2023-03-01T08:11:06;10.40;58.40
38788;DHT22;24536;45.488;12.238;2023-03-01T08:13:33;10.30;59.00
38788;DHT22;24536;45.488;12.238;2023-03-01T08:16:06;10.40;59.10
38788;DHT22;24536;45.488;12.238;2023-03-01T08:18:33;10.40;58.70
38788;DHT22;24536;45.488;12.238;2023-03-01T08:21:06;10.40;58.90
38788;DHT22;24536;45.488;12.238;2023-03-01T08:23:32;10.50;58.90
38788;DHT22;24536;45.488;12.238;2023-03-01T08:30:57;10.60;58.20
38788;DHT22;24536;45.488;12.238;2023-03-01T08:33:23;10.50;58.20
38788;DHT22;24536;45.488;12.238;2023-03-01T08:35:49;10.60;58.20
38788;DHT22;24536;45.488;12.238;2023-03-01T08:38:15;10.60;58.50
38788;DHT22;24536;45.488;12.238;2023-03-01T08:40:44;10.70;57.60
38788;DHT22;24536;45.488;12.238;2023-03-01T08:43:10;10.70;58.20
38788;DHT22;24536;45.488;12.238;2023-03-01T08:45:35;10.90;57.40
38788;DHT22;24536;45.488;12.238;2023-03-01T08:48:01;11.00;56.90
38788;DHT22;24536;45.488;12.238;2023-03-01T08:50:27;11.20;57.30
38788;DHT22;24536;45.488;12.238;2023-03-01T08:52:52;11.30;56.50
38788;DHT22;24536;45.488;12.238;2023-03-01T08:55:18;11.30;56.30
38788;DHT22;24536;45.488;12.238;2023-03-01T08:57:43;11.40;56.20
38788;DHT22;24536;45.488;12.238;2023-03-01T09:00:10;11.50;56.60
38788;DHT22;24536;45.488;12.238;2023-03-01T09:02:40;11.60;56.70
38788;DHT22;24536;45.488;12.238;2023-03-01T09:05:06;11.60;56.60
38788;DHT22;24536;45.488;12.238;2023-03-01T09:07:31;11.60;55.90
38788;DHT22;24536;45.488;12.238;2023-03-01T09:09:57;11.70;55.20
38788;DHT22;24536;45.488;12.238;2023-03-01T09:12:23;11.60;55.50
38788;DHT22;24536;45.488;12.238;2023-03-01T09:14:50;11.90;55.70
38788;DHT22;24536;45.488;12.238;2023-03-01T09:17:16;11.90;56.10
38788;DHT22;24536;45.488;12.238;2023-03-01T09:19:41;12.00;56.60
38788;DHT22;24536;45.488;12.238;2023-03-01T09:22:07;12.00;55.20
38788;DHT22;24536;45.488;12.238;2023-03-01T09:24:32;12.00;55.80
38788;DHT22;24536;45.488;12.238;2023-03-01T09:26:58;12.10;54.60
38788;DHT22;24536;45.488;12.238;2023-03-01T09:29:24;12.10;55.10
38788;DHT22;24536;45.488;12.238;2023-03-01T09:31:51;12.10;55.10
38788;DHT22;24536;45.488;12.238;2023-03-01T09:34:17;12.20;55.20
38788;DHT22;24536;45.488;12.238;2023-03-01T09:36:48;12.30;54.50
38788;DHT22;24536;45.488;12.238;2023-03-01T09:39:14;12.30;55.20
38788;DHT22;24536;45.488;12.238;2023-03-01T09:42:04;12.40;54.80
38788;DHT22;24536;45.488;12.238;2023-03-01T09:44:55;12.60;53.50
38788;DHT22;24536;45.488;12.238;2023-03-01T09:47:34;12.70;54.50
38788;DHT22;24536;45.488;12.238;2023-03-01T09:52:44;12.80;53.80
38788;DHT22;24536;45.488;12.238;2023-03-01T09:55:15;12.60;53.00
38788;DHT22;24536;45.488;12.238;2023-03-01T09:57:49;12.50;54.10
38788;DHT22;24536;45.488;12.238;2023-03-01T10:06:04;12.50;54.20
38788;DHT22;24536;45.488;12.238;2023-03-01T10:08:41;12.50;54.60
38788;DHT22;24536;45.488;12.238;2023-03-01T10:11:28;12.50;54.50
38788;DHT22;24536;45.488;12.238;2023-03-01T10:22:15;12.30;54.70
38788;DHT22;24536;45.488;12.238;2023-03-01T10:24:41;12.30;55.10
38788;DHT22;24536;45.488;12.238;2023-03-01T10:32:26;12.20;55.80
38788;DHT22;24536;45.488;12.238;2023-03-01T10:34:52;12.20;56.20
38788;DHT22;24536;45.488;12.238;2023-03-01T10:37:20;12.10;56.70
38788;DHT22;24536;45.488;12.238;2023-03-01T10:40:07;12.10;56.90
38788;DHT22;24536;45.488;12.238;2023-03-01T10:42:37;12.20;56.60
38788;DHT22;24536;45.488;12.238;2023-03-01T10:45:38;12.30;56.00
38788;DHT22;24536;45.488;12.238;2023-03-01T10:48:23;12.40;55.60
38788;DHT22;24536;45.488;12.238;2023-03-01T10:53:27;12.40;56.20
38788;DHT22;24536;45.488;12.238;2023-03-01T10:56:09;12.50;56.30
38788;DHT22;24536;45.488;12.238;2023-03-01T10:58:37;12.50;54.80
38788;DHT22;24536;45.488;12.238;2023-03-01T11:01:06;12.50;54.90
38788;DHT22;24536;45.488;12.238;2023-03-01T11:06:34;12.30;54.50
38788;DHT22;24536;45.488;12.238;2023-03-01T11:09:20;12.30;55.00
38788;DHT22;24536;45.488;12.238;2023-03-01T11:11:51;12.30;56.00
38788;DHT22;24536;45.488;12.238;2023-03-01T11:14:18;12.30;56.40
38788;DHT22;24536;45.488;12.238;2023-03-01T11:16:48;12.30;56.40
38788;DHT22;24536;45.488;12.238;2023-03-01T11:19:17;12.30;56.50
38788;DHT22;24536;45.488;12.238;2023-03-01T11:24:51;12.10;56.20
38788;DHT22;24536;45.488;12.238;2023-03-01T11:27:26;12.10;56.50
38788;DHT22;24536;45.488;12.238;2023-03-01T11:30:13;12.10;56.80
38788;DHT22;24536;45.488;12.238;2023-03-01T11:35:35;12.00;56.60
38788;DHT22;24536;45.488;12.238;2023-03-01T11:38:24;11.90;56.80
38788;DHT22;24536;45.488;12.238;2023-03-01T11:43:38;12.00;57.70
38788;DHT22;24536;45.488;12.238;2023-03-01T11:54:39;12.10;58.30
38788;DHT22;24536;45.488;12.238;2023-03-01T12:08:49;11.90;58.10
38788;DHT22;24536;45.488;12.238;2023-03-01T12:11:22;11.90;58.90
38788;DHT22;24536;45.488;12.238;2023-03-01T12:14:10;11.80;58.50
38788;DHT22;24536;45.488;12.238;2023-03-01T12:22:28;11.70;59.20
38788;DHT22;24536;45.488;12.238;2023-03-01T12:25:25;11.70;59.80
38788;DHT22;24536;45.488;12.238;2023-03-01T12:33:53;11.50;60.40
38788;DHT22;24536;45.488;12.238;2023-03-01T12:39:26;11.50;60.70
38788;DHT22;24536;45.488;12.238;2023-03-01T12:50:19;11.70;60.10
38788;DHT22;24536;45.488;12.238;2023-03-01T13:01:19;11.70;58.90
38788;DHT22;24536;45.488;12.238;2023-03-01T13:09:11;11.40;58.70
38788;DHT22;24536;45.488;12.238;2023-03-01T13:11:42;11.30;59.10
38788;DHT22;24536;45.488;12.238;2023-03-01T13:16:48;11.40;59.60
38788;DHT22;24536;45.488;12.238;2023-03-01T13:21:44;11.50;59.50
38788;DHT22;24536;45.488;12.238;2023-03-01T13:24:37;11.50;59.70
38788;DHT22;24536;45.488;12.238;2023-03-01T13:32:27;11.50;60.00
38788;DHT22;24536;45.488;12.238;2023-03-01T13:37:45;11.50;60.10
38788;DHT22;24536;45.488;12.238;2023-03-01T13:42:49;11.60;59.90
38788;DHT22;24536;45.488;12.238;2023-03-01T13:48:02;11.50;60.40
38788;DHT22;24536;45.488;12.238;2023-03-01T13:50:36;11.50;60.70
38788;DHT22;24536;45.488;12.238;2023-03-01T13:53:06;11.60;60.60
38788;DHT22;24536;45.488;12.238;2023-03-01T13:55:40;11.50;62.50
38788;DHT22;24536;45.488;12.238;2023-03-01T13:58:32;11.50;62.50
38788;DHT22;24536;45.488;12.238;2023-03-01T14:01:04;11.60;62.50
38788;DHT22;24536;45.488;12.238;2023-03-01T14:03:33;11.50;63.60
38788;DHT22;24536;45.488;12.238;2023-03-01T14:06:13;11.60;63.70
38788;DHT22;24536;45.488;12.238;2023-03-01T14:08:41;11.60;65.00
38788;DHT22;24536;45.488;12.238;2023-03-01T14:11:29;11.60;64.30
38788;DHT22;24536;45.488;12.238;2023-03-01T14:16:56;11.60;64.60
38788;DHT22;24536;45.488;12.238;2023-03-01T14:19:26;11.70;65.40
38788;DHT22;24536;45.488;12.238;2023-03-01T14:24:53;11.60;66.00
38788;DHT22;24536;45.488;12.238;2023-03-01T14:27:20;11.60;65.70
38788;DHT22;24536;45.488;12.238;2023-03-01T14:30:01;11.60;65.90
38788;DHT22;24536;45.488;12.238;2023-03-01T14:32:29;11.60;65.50
38788;DHT22;24536;45.488;12.238;2023-03-01T14:34:57;11.60;65.50
38788;DHT22;24536;45.488;12.238;2023-03-01T14:37:32;11.70;65.90
38788;DHT22;24536;45.488;12.238;2023-03-01T14:39:59;11.60;66.00
38788;DHT22;24536;45.488;12.238;2023-03-01T14:42:34;11.60;65.80
38788;DHT22;24536;45.488;12.238;2023-03-01T14:45:02;11.60;65.80
38788;DHT22;24536;45.488;12.238;2023-03-01T14:47:34;11.50;63.80
38788;DHT22;24536;45.488;12.238;2023-03-01T14:50:19;11.50;64.30
38788;DHT22;24536;45.488;12.238;2023-03-01T14:52:48;11.60;64.70
38788;DHT22;24536;45.488;12.238;2023-03-01T14:55:18;11.60;65.10
38788;DHT22;24536;45.488;12.238;2023-03-01T14:57:47;11.60;64.50
38788;DHT22;24536;45.488;12.238;2023-03-01T15:02:46;11.70;65.10
38788;DHT22;24536;45.488;12.238;2023-03-01T15:05:14;11.70;64.90
38788;DHT22;24536;45.488;12.238;2023-03-01T15:07:42;11.70;64.90
38788;DHT22;24536;45.488;12.238;2023-03-01T15:10:26;11.70;65.70
38788;DHT22;24536;45.488;12.238;2023-03-01T15:12:52;11.70;65.00
38788;DHT22;24536;45.488;12.238;2023-03-01T15:18:22;11.50;65.90
38788;DHT22;24536;45.488;12.238;2023-03-01T15:20:50;11.50;66.10
38788;DHT22;24536;45.488;12.238;2023-03-01T15:23:26;11.50;66.10
38788;DHT22;24536;45.488;12.238;2023-03-01T15:25:53;11.50;66.50
38788;DHT22;24536;45.488;12.238;2023-03-01T15:34:50;11.50;68.50
38788;DHT22;24536;45.488;12.238;2023-03-01T15:44:00;11.30;69.20
38788;DHT22;24536;45.488;12.238;2023-03-01T15:46:32;11.20;70.20
38788;DHT22;24536;45.488;12.238;2023-03-01T15:49:04;11.00;70.30
38788;DHT22;24536;45.488;12.238;2023-03-01T15:51:35;11.00;71.20
38788;DHT22;24536;45.488;12.238;2023-03-01T15:54:12;11.00;72.70
38788;DHT22;24536;45.488;12.238;2023-03-01T15:56:38;11.00;72.80
38788;DHT22;24536;45.488;12.238;2023-03-01T15:59:04;10.90;73.20
38788;DHT22;24536;45.488;12.238;2023-03-01T16:01:32;10.90;74.00
38788;DHT22;24536;45.488;12.238;2023-03-01T16:03:59;10.80;74.80
38788;DHT22;24536;45.488;12.238;2023-03-01T16:06:25;10.80;74.30
38788;DHT22;24536;45.488;12.238;2023-03-01T16:08:52;10.80;75.50
38788;DHT22;24536;45.488;12.238;2023-03-01T16:11:20;10.80;74.70
38788;DHT22;24536;45.488;12.238;2023-03-01T16:13:46;10.70;75.20
38788;DHT22;24536;45.488;12.238;2023-03-01T16:16:13;10.70;75.10
38788;DHT22;24536;45.488;12.238;2023-03-01T16:18:44;10.70;75.10
38788;DHT22;24536;45.488;12.238;2023-03-01T16:21:13;10.70;75.40
38788;DHT22;24536;45.488;12.238;2023-03-01T16:23:41;10.70;75.90
38788;DHT22;24536;45.488;12.238;2023-03-01T16:26:07;10.60;76.30
38788;DHT22;24536;45.488;12.238;2023-03-01T16:28:32;10.50;76.10
38788;DHT22;24536;45.488;12.238;2023-03-01T16:30:58;10.50;75.80
38788;DHT22;24536;45.488;12.238;2023-03-01T16:33:26;10.50;76.40
38788;DHT22;24536;45.488;12.238;2023-03-01T16:35:52;10.50;75.90
38788;DHT22;24536;45.488;12.238;2023-03-01T16:38:18;10.40;76.80
38788;DHT22;24536;45.488;12.238;2023-03-01T16:40:47;10.40;76.50
38788;DHT22;24536;45.488;12.238;2023-03-01T16:43:13;10.40;75.90
38788;DHT22;24536;45.488;12.238;2023-03-01T16:45:39;10.40;77.10
38788;DHT22;24536;45.488;12.238;2023-03-01T16:48:06;10.30;77.60
38788;DHT22;24536;45.488;12.238;2023-03-01T16:50:32;10.30;76.90
38788;DHT22;24536;45.488;12.238;2023-03-01T16:52:58;10.30;77.00
38788;DHT22;24536;45.488;12.238;2023-03-01T16:55:23;10.30;77.20
38788;DHT22;24536;45.488;12.238;2023-03-01T16:57:49;10.30;76.80
38788;DHT22;24536;45.488;12.238;2023-03-01T17:00:16;10.30;78.00
38788;DHT22;24536;45.488;12.238;2023-03-01T17:02:43;10.20;78.40
38788;DHT22;24536;45.488;12.238;2023-03-01T17:05:09;10.10;78.00
38788;DHT22;24536;45.488;12.238;2023-03-01T17:07:37;10.10;77.60
38788;DHT22;24536;45.488;12.238;2023-03-01T17:10:05;10.00;78.40
38788;DHT22;24536;45.488;12.238;2023-03-01T17:12:33;9.90;78.90
38788;DHT22;24536;45.488;12.238;2023-03-01T17:14:59;10.00;79.50
38788;DHT22;24536;45.488;12.238;2023-03-01T17:17:26;9.90;81.10
38788;DHT22;24536;45.488;12.238;2023-03-01T17:19:52;9.90;80.80
38788;DHT22;24536;45.488;12.238;2023-03-01T17:22:18;9.80;82.50
38788;DHT22;24536;45.488;12.238;2023-03-01T17:24:44;9.90;81.00
38788;DHT22;24536;45.488;12.238;2023-03-01T17:27:11;9.90;82.90
38788;DHT22;24536;45.488;12.238;2023-03-01T17:29:38;9.90;81.40
38788;DHT22;24536;45.488;12.238;2023-03-01T17:32:04;9.90;82.00
38788;DHT22;24536;45.488;12.238;2023-03-01T17:34:31;9.80;83.40
38788;DHT22;24536;45.488;12.238;2023-03-01T17:36:57;9.80;82.40
38788;DHT22;24536;45.488;12.238;2023-03-01T17:39:23;9.80;82.80
38788;DHT22;24536;45.488;12.238;2023-03-01T17:41:56;9.80;83.20
38788;DHT22;24536;45.488;12.238;2023-03-01T17:44:22;9.80;84.00
38788;DHT22;24536;45.488;12.238;2023-03-01T17:46:48;9.70;85.70
38788;DHT22;24536;45.488;12.238;2023-03-01T17:49:13;9.70;84.40
38788;DHT22;24536;45.488;12.238;2023-03-01T17:51:41;9.70;85.10
38788;DHT22;24536;45.488;12.238;2023-03-01T17:54:07;9.60;86.80
38788;DHT22;24536;45.488;12.238;2023-03-01T17:56:32;9.60;85.20
38788;DHT22;24536;45.488;12.238;2023-03-01T17:58:59;9.70;85.60
38788;DHT22;24536;45.488;12.238;2023-03-01T18:01:25;9.80;85.20
38788;DHT22;24536;45.488;12.238;2023-03-01T18:03:51;9.80;85.50
38788;DHT22;24536;45.488;12.238;2023-03-01T18:06:19;9.80;86.10
38788;DHT22;24536;45.488;12.238;2023-03-01T18:08:46;9.70;86.20
38788;DHT22;24536;45.488;12.238;2023-03-01T18:11:13;9.80;85.60
38788;DHT22;24536;45.488;12.238;2023-03-01T18:13:39;9.70;85.60
38788;DHT22;24536;45.488;12.238;2023-03-01T18:16:10;9.70;86.10